createdAt,value
2022-09-07T00:01:00.864Z,6.60
2022-09-07T00:03:27.928Z,6.28
2022-09-07T00:05:54.907Z,5.53
2022-09-07T00:08:25.147Z,5.50
2022-09-07T00:11:04.363Z,5.97
2022-09-07T00:13:35.183Z,5.68
2022-09-07T00:16:07.698Z,6.65
2022-09-07T00:18:35.082Z,5.97
2022-09-07T00:21:07.794Z,6.72
2022-09-07T00:23:36.985Z,6.35
2022-09-07T00:26:07.059Z,6.00
2022-09-07T00:28:34.474Z,6.68
2022-09-07T00:31:01.625Z,6.72
2022-09-07T00:33:28.536Z,6.80
2022-09-07T00:35:55.273Z,6.57
2022-09-07T00:38:22.215Z,6.80
2022-09-07T00:40:49.243Z,6.85
2022-09-07T00:43:28.824Z,6.30
2022-09-07T00:48:26.027Z,6.70
2022-09-07T00:50:58.778Z,6.88
2022-09-07T00:53:30.595Z,6.57
2022-09-07T00:55:59.327Z,7.00
2022-09-07T00:58:26.275Z,6.70
2022-09-07T01:00:53.145Z,6.13
2022-09-07T01:03:27.438Z,7.05
2022-09-07T01:06:19.149Z,6.95
2022-09-07T01:08:49.832Z,7.53
2022-09-07T01:11:22.073Z,6.63
2022-09-07T01:13:50.830Z,6.85
2022-09-07T01:16:32.021Z,7.20
2022-09-07T01:19:16.772Z,6.68
2022-09-07T01:22:02.022Z,7.28
2022-09-07T01:24:37.858Z,6.25
2022-09-07T01:27:19.821Z,6.28
2022-09-07T01:29:59.011Z,6.78
2022-09-07T01:32:37.891Z,6.45
2022-09-07T01:35:15.365Z,7.13
2022-09-07T01:37:57.793Z,6.57
2022-09-07T01:40:41.882Z,6.80
2022-09-07T01:43:15.105Z,6.57
2022-09-07T01:45:44.746Z,6.55
2022-09-07T01:50:52.515Z,6.15
2022-09-07T01:53:27.218Z,6.15
2022-09-07T01:56:03.686Z,6.53
2022-09-07T01:58:44.831Z,6.20
2022-09-07T02:01:53.185Z,7.00
2022-09-07T02:04:37.757Z,6.45
2022-09-07T02:07:25.790Z,6.82
2022-09-07T02:09:55.247Z,6.43
2022-09-07T02:12:30.233Z,6.80
2022-09-07T02:15:01.706Z,6.20
2022-09-07T02:17:43.481Z,6.30
2022-09-07T02:20:15.438Z,6.60
2022-09-07T02:22:47.049Z,6.18
2022-09-07T02:25:26.168Z,6.40
2022-09-07T02:28:09.693Z,6.32
2022-09-07T02:30:37.452Z,6.72
2022-09-07T02:33:04.663Z,6.80
2022-09-07T02:35:32.050Z,6.38
2022-09-07T02:38:03.205Z,6.22
2022-09-07T02:40:30.097Z,6.50
2022-09-07T02:43:00.555Z,6.72
2022-09-07T02:45:37.819Z,6.40
2022-09-07T02:48:16.601Z,6.20
2022-09-07T02:50:49.116Z,6.05
2022-09-07T02:53:34.758Z,5.95
2022-09-07T02:56:12.341Z,6.30
2022-09-07T02:58:47.968Z,6.20
2022-09-07T03:01:51.433Z,6.53
2022-09-07T03:05:06.238Z,6.20
2022-09-07T03:07:43.533Z,6.78
2022-09-07T03:10:12.691Z,6.32
2022-09-07T03:12:45.510Z,6.60
2022-09-07T03:15:14.427Z,6.35
2022-09-07T03:17:42.173Z,6.87
2022-09-07T03:20:09.510Z,6.35
2022-09-07T03:22:36.276Z,6.75
2022-09-07T03:25:04.410Z,6.78
2022-09-07T03:27:32.665Z,6.82
2022-09-07T03:29:59.988Z,6.82
2022-09-07T03:32:32.277Z,6.53
2022-09-07T03:34:59.893Z,6.35
2022-09-07T03:37:26.879Z,6.82
2022-09-07T03:39:53.932Z,6.88
2022-09-07T03:42:21.487Z,6.60
2022-09-07T03:44:49.932Z,7.30
2022-09-07T03:47:17.790Z,6.50
2022-09-07T03:49:44.905Z,6.95
2022-09-07T03:52:11.918Z,6.32
2022-09-07T03:54:39.776Z,6.35
2022-09-07T03:57:06.800Z,6.55
2022-09-07T03:59:33.669Z,6.82
2022-09-07T04:02:00.780Z,6.35
2022-09-07T04:04:28.063Z,6.50
2022-09-07T04:06:55.104Z,6.18
2022-09-07T04:09:21.934Z,6.03
2022-09-07T04:11:48.681Z,6.93
2022-09-07T04:14:15.479Z,6.22
2022-09-07T04:16:42.367Z,6.45
2022-09-07T04:19:09.229Z,6.97
2022-09-07T04:21:35.942Z,5.93
2022-09-07T04:24:02.942Z,6.22
2022-09-07T04:26:32.388Z,6.93
2022-09-07T04:29:01.339Z,6.72
2022-09-07T04:31:28.204Z,6.77
2022-09-07T04:33:55.758Z,6.93
2022-09-07T04:36:24.912Z,6.63
2022-09-07T04:39:00.595Z,7.30
2022-09-07T04:41:29.391Z,6.90
2022-09-07T04:43:58.024Z,7.50
2022-09-07T04:46:42.966Z,7.70
2022-09-07T04:49:12.035Z,7.30
2022-09-07T04:51:39.952Z,7.00
2022-09-07T04:54:07.136Z,8.90
2022-09-07T04:56:34.470Z,9.23
2022-09-07T04:59:02.391Z,8.27
2022-09-07T05:01:29.948Z,8.13
2022-09-07T05:03:58.915Z,8.15
2022-09-07T05:06:25.584Z,8.30
2022-09-07T05:08:54.448Z,8.82
2022-09-07T05:11:28.325Z,7.43
2022-09-07T05:14:01.478Z,7.70
2022-09-07T05:16:29.664Z,8.50
2022-09-07T05:18:59.054Z,8.32
2022-09-07T05:21:28.585Z,8.02
2022-09-07T05:23:57.365Z,7.57
2022-09-07T05:26:27.275Z,8.57
2022-09-07T05:31:41.835Z,8.10
2022-09-07T05:36:56.388Z,8.23
2022-09-07T05:39:23.506Z,7.57
2022-09-07T05:41:50.261Z,7.22
2022-09-07T05:47:04.269Z,6.45
2022-09-07T05:53:46.191Z,6.55
2022-09-07T05:56:13.656Z,7.68
2022-09-07T05:58:40.699Z,7.68
2022-09-07T06:01:10.224Z,7.25
2022-09-07T06:03:39.344Z,6.75
2022-09-07T06:06:07.609Z,7.30
2022-09-07T06:08:36.153Z,6.75
2022-09-07T06:11:10.982Z,6.65
